Terminal Aerodrome Forecast
Issued by NWS

Home | Current Version | Previous Version | Text Only | Print | Product List | Glossary On
Versions: 1 2 3 4 5 6 7 8 9 10 11 12 13 14
000
FTUS46 KSEW 201725
TAFOLM
TAF
KOLM 201725Z 2018/2118 19010KT P6SM VCSH BKN035 BKN060 OVC080
     FM202000 23012G18KT P6SM -SHRA SCT030 BKN050 OVC100
     FM210100 21006KT P6SM SCT035 BKN080 OVC120
     FM211000 19004KT P6SM -RA BKN035 OVC060
     FM211500 14008KT 3SM -RA BR BKN007 OVC020=

USA.gov is the U.S. government's official web portal to all federal, state and local government web resources and services.